<?xml version="1.0" encoding="UTF-8" standalone="no" ?>
<gpx xmlns="http://www.topografix.com/GPX/1/1" xmlns:xsi="http://www.w3.org/2001/XMLSchema-instance" xsi:schemaLocation="http://www.topografix.com/GPX/1/1 http://www.topografix.com/GPX/1/1/gpx.xsd" version="1.1" creator="VisuGPX - https://www.visugpx.com">
  <metadata>
    <name>clans chapelle saint anne 17 km 800 m</name>
    <desc><![CDATA[CLANS CHAPELLE SAINT ANNE 17 KM 800 M
IGN 3641 ET MOYENNE TINEE
L 351 600  L 4873 125 ]]></desc>
  </metadata>
  <trk>
    <name><![CDATA[--Clans-- OR-5993159:CLANS CHAPELLE ST ANNE 17 KM 800 M]]></name>
    <trkseg>
      <trkpt lat="43.99633" lon="7.14936">
        <ele>683</ele>
        <time>2016-04-24T16:27:02Z</time>
      </trkpt>
      <trkpt lat="43.99642" lon="7.15004">
        <ele>684</ele>
        <time>2016-04-24T16:29:02Z</time>
      </trkpt>
      <trkpt lat="43.99655" lon="7.15043">
        <ele>686</ele>
        <time>2016-04-24T16:31:02Z</time>
      </trkpt>
      <trkpt lat="43.99656" lon="7.15139">
        <ele>691</ele>
        <time>2016-04-24T16:33:02Z</time>
      </trkpt>
      <trkpt lat="43.99633" lon="7.15234">
        <ele>695</ele>
        <time>2016-04-24T16:35:02Z</time>
      </trkpt>
      <trkpt lat="43.99599" lon="7.15305">
        <ele>692</ele>
        <time>2016-04-24T16:37:02Z</time>
      </trkpt>
      <trkpt lat="43.99576" lon="7.15386">
        <ele>690</ele>
        <time>2016-04-24T16:39:02Z</time>
      </trkpt>
      <trkpt lat="43.9959" lon="7.15461">
        <ele>695</ele>
        <time>2016-04-24T16:41:02Z</time>
      </trkpt>
      <trkpt lat="43.9961" lon="7.15504">
        <ele>703</ele>
        <time>2016-04-24T16:43:02Z</time>
      </trkpt>
      <trkpt lat="43.9963" lon="7.15513">
        <ele>715</ele>
        <time>2016-04-24T16:45:02Z</time>
      </trkpt>
      <trkpt lat="43.99649" lon="7.15558">
        <ele>719</ele>
        <time>2016-04-24T16:47:02Z</time>
      </trkpt>
      <trkpt lat="43.99676" lon="7.15594">
        <ele>730</ele>
        <time>2016-04-24T16:49:02Z</time>
      </trkpt>
      <trkpt lat="43.99652" lon="7.15783">
        <ele>727</ele>
        <time>2016-04-24T16:51:02Z</time>
      </trkpt>
      <trkpt lat="43.99698" lon="7.15916">
        <ele>739</ele>
        <time>2016-04-24T16:53:02Z</time>
      </trkpt>
      <trkpt lat="43.99789" lon="7.15985">
        <ele>768</ele>
        <time>2016-04-24T16:55:02Z</time>
      </trkpt>
      <trkpt lat="43.99826" lon="7.16019">
        <ele>782</ele>
        <time>2016-04-24T16:57:02Z</time>
      </trkpt>
      <trkpt lat="43.99767" lon="7.16079">
        <ele>776</ele>
        <time>2016-04-24T16:59:02Z</time>
      </trkpt>
      <trkpt lat="43.99689" lon="7.16122">
        <ele>768</ele>
        <time>2016-04-24T17:01:02Z</time>
      </trkpt>
      <trkpt lat="43.99737" lon="7.16131">
        <ele>783</ele>
        <time>2016-04-24T17:03:02Z</time>
      </trkpt>
      <trkpt lat="43.99722" lon="7.16145">
        <ele>782</ele>
        <time>2016-04-24T17:05:02Z</time>
      </trkpt>
      <trkpt lat="43.99759" lon="7.16143">
        <ele>793</ele>
        <time>2016-04-24T17:07:02Z</time>
      </trkpt>
      <trkpt lat="43.99742" lon="7.16163">
        <ele>793</ele>
        <time>2016-04-24T17:09:02Z</time>
      </trkpt>
      <trkpt lat="43.99794" lon="7.16238">
        <ele>817</ele>
        <time>2016-04-24T17:11:02Z</time>
      </trkpt>
      <trkpt lat="43.99781" lon="7.16315">
        <ele>816</ele>
        <time>2016-04-24T17:13:02Z</time>
      </trkpt>
      <trkpt lat="43.99817" lon="7.1638">
        <ele>824</ele>
        <time>2016-04-24T17:15:02Z</time>
      </trkpt>
      <trkpt lat="43.99956" lon="7.16367">
        <ele>862</ele>
        <time>2016-04-24T17:17:02Z</time>
      </trkpt>
      <trkpt lat="44.00041" lon="7.16393">
        <ele>871</ele>
        <time>2016-04-24T17:19:02Z</time>
      </trkpt>
      <trkpt lat="44.00058" lon="7.16442">
        <ele>854</ele>
        <time>2016-04-24T17:21:02Z</time>
      </trkpt>
      <trkpt lat="44.00112" lon="7.1647">
        <ele>872</ele>
        <time>2016-04-24T17:23:02Z</time>
      </trkpt>
      <trkpt lat="44.00093" lon="7.16498">
        <ele>847</ele>
        <time>2016-04-24T17:25:02Z</time>
      </trkpt>
      <trkpt lat="44.00096" lon="7.16545">
        <ele>857</ele>
        <time>2016-04-24T17:27:02Z</time>
      </trkpt>
      <trkpt lat="44.00059" lon="7.16594">
        <ele>847</ele>
        <time>2016-04-24T17:29:02Z</time>
      </trkpt>
      <trkpt lat="44.00013" lon="7.16695">
        <ele>859</ele>
        <time>2016-04-24T17:31:02Z</time>
      </trkpt>
      <trkpt lat="44.00016" lon="7.16738">
        <ele>870</ele>
        <time>2016-04-24T17:33:02Z</time>
      </trkpt>
      <trkpt lat="44.00036" lon="7.1676">
        <ele>882</ele>
        <time>2016-04-24T17:35:02Z</time>
      </trkpt>
      <trkpt lat="44.00033" lon="7.1682">
        <ele>866</ele>
        <time>2016-04-24T17:37:02Z</time>
      </trkpt>
      <trkpt lat="44.00098" lon="7.16852">
        <ele>895</ele>
        <time>2016-04-24T17:39:02Z</time>
      </trkpt>
      <trkpt lat="44.00153" lon="7.16884">
        <ele>916</ele>
        <time>2016-04-24T17:41:02Z</time>
      </trkpt>
      <trkpt lat="44.00095" lon="7.16987">
        <ele>878</ele>
        <time>2016-04-24T17:43:02Z</time>
      </trkpt>
      <trkpt lat="44.00085" lon="7.17062">
        <ele>889</ele>
        <time>2016-04-24T17:45:02Z</time>
      </trkpt>
      <trkpt lat="44.00068" lon="7.17107">
        <ele>877</ele>
        <time>2016-04-24T17:47:02Z</time>
      </trkpt>
      <trkpt lat="44.00104" lon="7.17122">
        <ele>889</ele>
        <time>2016-04-24T17:49:02Z</time>
      </trkpt>
      <trkpt lat="44.00172" lon="7.17103">
        <ele>924</ele>
        <time>2016-04-24T17:51:02Z</time>
      </trkpt>
      <trkpt lat="44.00215" lon="7.17161">
        <ele>924</ele>
        <time>2016-04-24T17:53:02Z</time>
      </trkpt>
      <trkpt lat="44.00189" lon="7.17232">
        <ele>906</ele>
        <time>2016-04-24T17:55:02Z</time>
      </trkpt>
      <trkpt lat="44.00212" lon="7.17354">
        <ele>911</ele>
        <time>2016-04-24T17:57:02Z</time>
      </trkpt>
      <trkpt lat="44.00305" lon="7.1735">
        <ele>949</ele>
        <time>2016-04-24T17:59:02Z</time>
      </trkpt>
      <trkpt lat="44.00346" lon="7.17375">
        <ele>957</ele>
        <time>2016-04-24T18:01:02Z</time>
      </trkpt>
      <trkpt lat="44.00332" lon="7.17425">
        <ele>937</ele>
        <time>2016-04-24T18:03:02Z</time>
      </trkpt>
      <trkpt lat="44.00323" lon="7.17448">
        <ele>932</ele>
        <time>2016-04-24T18:05:02Z</time>
      </trkpt>
      <trkpt lat="44.00332" lon="7.17487">
        <ele>933</ele>
        <time>2016-04-24T18:07:02Z</time>
      </trkpt>
      <trkpt lat="44.00331" lon="7.17532">
        <ele>929</ele>
        <time>2016-04-24T18:09:02Z</time>
      </trkpt>
      <trkpt lat="44.00391" lon="7.17575">
        <ele>947</ele>
        <time>2016-04-24T18:11:02Z</time>
      </trkpt>
      <trkpt lat="44.00477" lon="7.17577">
        <ele>976</ele>
        <time>2016-04-24T18:13:02Z</time>
      </trkpt>
      <trkpt lat="44.00477" lon="7.17727">
        <ele>964</ele>
        <time>2016-04-24T18:15:02Z</time>
      </trkpt>
      <trkpt lat="44.00467" lon="7.17805">
        <ele>955</ele>
        <time>2016-04-24T18:17:02Z</time>
      </trkpt>
      <trkpt lat="44.00508" lon="7.1782">
        <ele>980</ele>
        <time>2016-04-24T18:19:02Z</time>
      </trkpt>
      <trkpt lat="44.00507" lon="7.17877">
        <ele>970</ele>
        <time>2016-04-24T18:21:02Z</time>
      </trkpt>
      <trkpt lat="44.00552" lon="7.1797">
        <ele>981</ele>
        <time>2016-04-24T18:23:02Z</time>
      </trkpt>
      <trkpt lat="44.00539" lon="7.18026">
        <ele>964</ele>
        <time>2016-04-24T18:25:02Z</time>
      </trkpt>
      <trkpt lat="44.00596" lon="7.18047">
        <ele>988</ele>
        <time>2016-04-24T18:27:02Z</time>
      </trkpt>
      <trkpt lat="44.00613" lon="7.18113">
        <ele>989</ele>
        <time>2016-04-24T18:29:02Z</time>
      </trkpt>
      <trkpt lat="44.00589" lon="7.18204">
        <ele>975</ele>
        <time>2016-04-24T18:31:02Z</time>
      </trkpt>
      <trkpt lat="44.00649" lon="7.18328">
        <ele>994</ele>
        <time>2016-04-24T18:33:02Z</time>
      </trkpt>
      <trkpt lat="44.00717" lon="7.18324">
        <ele>1021</ele>
        <time>2016-04-24T18:35:02Z</time>
      </trkpt>
      <trkpt lat="44.00746" lon="7.18371">
        <ele>1016</ele>
        <time>2016-04-24T18:37:02Z</time>
      </trkpt>
      <trkpt lat="44.00825" lon="7.18373">
        <ele>1051</ele>
        <time>2016-04-24T18:39:02Z</time>
      </trkpt>
      <trkpt lat="44.00794" lon="7.18431">
        <ele>1024</ele>
        <time>2016-04-24T18:41:02Z</time>
      </trkpt>
      <trkpt lat="44.00803" lon="7.18521">
        <ele>1020</ele>
        <time>2016-04-24T18:43:02Z</time>
      </trkpt>
      <trkpt lat="44.008" lon="7.1859">
        <ele>1013</ele>
        <time>2016-04-24T18:45:02Z</time>
      </trkpt>
      <trkpt lat="44.00837" lon="7.18631">
        <ele>1019</ele>
        <time>2016-04-24T18:47:02Z</time>
      </trkpt>
      <trkpt lat="44.00891" lon="7.18635">
        <ele>1038</ele>
        <time>2016-04-24T18:49:02Z</time>
      </trkpt>
      <trkpt lat="44.00907" lon="7.18667">
        <ele>1033</ele>
        <time>2016-04-24T18:51:02Z</time>
      </trkpt>
      <trkpt lat="44.00905" lon="7.18719">
        <ele>1025</ele>
        <time>2016-04-24T18:53:02Z</time>
      </trkpt>
      <trkpt lat="44.00971" lon="7.18759">
        <ele>1031</ele>
        <time>2016-04-24T18:55:02Z</time>
      </trkpt>
      <trkpt lat="44.01024" lon="7.18796">
        <ele>1037</ele>
        <time>2016-04-24T18:57:02Z</time>
      </trkpt>
      <trkpt lat="44.00971" lon="7.18849">
        <ele>1018</ele>
        <time>2016-04-24T18:59:02Z</time>
      </trkpt>
      <trkpt lat="44.00948" lon="7.18892">
        <ele>1012</ele>
        <time>2016-04-24T19:01:02Z</time>
      </trkpt>
      <trkpt lat="44.00956" lon="7.18944">
        <ele>1014</ele>
        <time>2016-04-24T19:03:02Z</time>
      </trkpt>
      <trkpt lat="44.01038" lon="7.19008">
        <ele>1052</ele>
        <time>2016-04-24T19:05:02Z</time>
      </trkpt>
      <trkpt lat="44.01073" lon="7.19058">
        <ele>1054</ele>
        <time>2016-04-24T19:07:02Z</time>
      </trkpt>
      <trkpt lat="44.01086" lon="7.1909">
        <ele>1050</ele>
        <time>2016-04-24T19:09:02Z</time>
      </trkpt>
      <trkpt lat="44.01121" lon="7.19107">
        <ele>1067</ele>
        <time>2016-04-24T19:11:02Z</time>
      </trkpt>
      <trkpt lat="44.0115" lon="7.19184">
        <ele>1059</ele>
        <time>2016-04-24T19:13:02Z</time>
      </trkpt>
      <trkpt lat="44.01206" lon="7.19195">
        <ele>1079</ele>
        <time>2016-04-24T19:15:02Z</time>
      </trkpt>
      <trkpt lat="44.0122" lon="7.19219">
        <ele>1075</ele>
        <time>2016-04-24T19:17:02Z</time>
      </trkpt>
      <trkpt lat="44.01325" lon="7.19201">
        <ele>1105</ele>
        <time>2016-04-24T19:19:02Z</time>
      </trkpt>
      <trkpt lat="44.01371" lon="7.19204">
        <ele>1115</ele>
        <time>2016-04-24T19:21:02Z</time>
      </trkpt>
      <trkpt lat="44.01368" lon="7.19242">
        <ele>1100</ele>
        <time>2016-04-24T19:23:02Z</time>
      </trkpt>
      <trkpt lat="44.0139" lon="7.19283">
        <ele>1106</ele>
        <time>2016-04-24T19:25:02Z</time>
      </trkpt>
      <trkpt lat="44.0134" lon="7.19364">
        <ele>1090</ele>
        <time>2016-04-24T19:27:02Z</time>
      </trkpt>
      <trkpt lat="44.01314" lon="7.19416">
        <ele>1083</ele>
        <time>2016-04-24T19:29:02Z</time>
      </trkpt>
      <trkpt lat="44.01337" lon="7.19487">
        <ele>1098</ele>
        <time>2016-04-24T19:31:02Z</time>
      </trkpt>
      <trkpt lat="44.01413" lon="7.19583">
        <ele>1106</ele>
        <time>2016-04-24T19:33:02Z</time>
      </trkpt>
      <trkpt lat="44.0149" lon="7.19585">
        <ele>1121</ele>
        <time>2016-04-24T19:35:02Z</time>
      </trkpt>
      <trkpt lat="44.01527" lon="7.19618">
        <ele>1117</ele>
        <time>2016-04-24T19:37:02Z</time>
      </trkpt>
      <trkpt lat="44.0157" lon="7.19605">
        <ele>1131</ele>
        <time>2016-04-24T19:39:02Z</time>
      </trkpt>
      <trkpt lat="44.01606" lon="7.19652">
        <ele>1134</ele>
        <time>2016-04-24T19:41:02Z</time>
      </trkpt>
      <trkpt lat="44.01541" lon="7.19749">
        <ele>1113</ele>
        <time>2016-04-24T19:43:02Z</time>
      </trkpt>
      <trkpt lat="44.01535" lon="7.19822">
        <ele>1120</ele>
        <time>2016-04-24T19:45:02Z</time>
      </trkpt>
      <trkpt lat="44.01573" lon="7.19871">
        <ele>1132</ele>
        <time>2016-04-24T19:47:02Z</time>
      </trkpt>
      <trkpt lat="44.01621" lon="7.19892">
        <ele>1146</ele>
        <time>2016-04-24T19:49:02Z</time>
      </trkpt>
      <trkpt lat="44.017" lon="7.19963">
        <ele>1152</ele>
        <time>2016-04-24T19:51:02Z</time>
      </trkpt>
      <trkpt lat="44.01732" lon="7.20032">
        <ele>1140</ele>
        <time>2016-04-24T19:53:02Z</time>
      </trkpt>
      <trkpt lat="44.01782" lon="7.20038">
        <ele>1158</ele>
        <time>2016-04-24T19:55:02Z</time>
      </trkpt>
      <trkpt lat="44.01842" lon="7.20079">
        <ele>1160</ele>
        <time>2016-04-24T19:57:02Z</time>
      </trkpt>
      <trkpt lat="44.01891" lon="7.20081">
        <ele>1170</ele>
        <time>2016-04-24T19:59:02Z</time>
      </trkpt>
      <trkpt lat="44.01962" lon="7.20038">
        <ele>1205</ele>
        <time>2016-04-24T20:01:02Z</time>
      </trkpt>
      <trkpt lat="44.02038" lon="7.20053">
        <ele>1201</ele>
        <time>2016-04-24T20:03:02Z</time>
      </trkpt>
      <trkpt lat="44.02141" lon="7.2">
        <ele>1225</ele>
        <time>2016-04-24T20:05:02Z</time>
      </trkpt>
      <trkpt lat="44.02172" lon="7.20025">
        <ele>1220</ele>
        <time>2016-04-24T20:07:02Z</time>
      </trkpt>
      <trkpt lat="44.02224" lon="7.19997">
        <ele>1235</ele>
        <time>2016-04-24T20:09:02Z</time>
      </trkpt>
      <trkpt lat="44.02255" lon="7.20023">
        <ele>1237</ele>
        <time>2016-04-24T20:11:02Z</time>
      </trkpt>
      <trkpt lat="44.02261" lon="7.20058">
        <ele>1234</ele>
        <time>2016-04-24T20:13:02Z</time>
      </trkpt>
      <trkpt lat="44.02234" lon="7.20062">
        <ele>1227</ele>
        <time>2016-04-24T20:15:02Z</time>
      </trkpt>
      <trkpt lat="44.02218" lon="7.20105">
        <ele>1229</ele>
        <time>2016-04-24T20:17:02Z</time>
      </trkpt>
      <trkpt lat="44.0215" lon="7.20169">
        <ele>1229</ele>
        <time>2016-04-24T20:19:02Z</time>
      </trkpt>
      <trkpt lat="44.0211" lon="7.20223">
        <ele>1228</ele>
        <time>2016-04-24T20:21:02Z</time>
      </trkpt>
      <trkpt lat="44.02092" lon="7.2027">
        <ele>1237</ele>
        <time>2016-04-24T20:23:02Z</time>
      </trkpt>
      <trkpt lat="44.02049" lon="7.20315">
        <ele>1242</ele>
        <time>2016-04-24T20:25:02Z</time>
      </trkpt>
      <trkpt lat="44.0195" lon="7.20389">
        <ele>1235</ele>
        <time>2016-04-24T20:27:02Z</time>
      </trkpt>
      <trkpt lat="44.0192" lon="7.20434">
        <ele>1231</ele>
        <time>2016-04-24T20:29:02Z</time>
      </trkpt>
      <trkpt lat="44.01967" lon="7.20431">
        <ele>1244</ele>
        <time>2016-04-24T20:31:02Z</time>
      </trkpt>
      <trkpt lat="44.01985" lon="7.20386">
        <ele>1244</ele>
        <time>2016-04-24T20:33:02Z</time>
      </trkpt>
      <trkpt lat="44.01961" lon="7.20457">
        <ele>1235</ele>
        <time>2016-04-24T20:35:02Z</time>
      </trkpt>
      <trkpt lat="44.02005" lon="7.20463">
        <ele>1248</ele>
        <time>2016-04-24T20:37:02Z</time>
      </trkpt>
      <trkpt lat="44.02038" lon="7.2056">
        <ele>1247</ele>
        <time>2016-04-24T20:39:02Z</time>
      </trkpt>
      <trkpt lat="44.0201" lon="7.20658">
        <ele>1230</ele>
        <time>2016-04-24T20:41:02Z</time>
      </trkpt>
      <trkpt lat="44.02059" lon="7.20736">
        <ele>1251</ele>
        <time>2016-04-24T20:43:02Z</time>
      </trkpt>
      <trkpt lat="44.02069" lon="7.20821">
        <ele>1260</ele>
        <time>2016-04-24T20:45:02Z</time>
      </trkpt>
      <trkpt lat="44.02053" lon="7.20873">
        <ele>1268</ele>
        <time>2016-04-24T20:47:02Z</time>
      </trkpt>
      <trkpt lat="44.01973" lon="7.20718">
        <ele>1221</ele>
        <time>2016-04-24T20:49:02Z</time>
      </trkpt>
      <trkpt lat="44.01922" lon="7.20718">
        <ele>1214</ele>
        <time>2016-04-24T20:51:02Z</time>
      </trkpt>
      <trkpt lat="44.01868" lon="7.20691">
        <ele>1194</ele>
        <time>2016-04-24T20:53:02Z</time>
      </trkpt>
      <trkpt lat="44.0176" lon="7.20776">
        <ele>1182</ele>
        <time>2016-04-24T20:55:02Z</time>
      </trkpt>
      <trkpt lat="44.01775" lon="7.20884">
        <ele>1210</ele>
        <time>2016-04-24T20:57:02Z</time>
      </trkpt>
      <trkpt lat="44.0174" lon="7.20905">
        <ele>1209</ele>
        <time>2016-04-24T20:59:02Z</time>
      </trkpt>
      <trkpt lat="44.01729" lon="7.20845">
        <ele>1199</ele>
        <time>2016-04-24T21:01:02Z</time>
      </trkpt>
      <trkpt lat="44.01675" lon="7.20779">
        <ele>1198</ele>
        <time>2016-04-24T21:03:02Z</time>
      </trkpt>
      <trkpt lat="44.01674" lon="7.20721">
        <ele>1180</ele>
        <time>2016-04-24T21:05:02Z</time>
      </trkpt>
      <trkpt lat="44.01684" lon="7.20645">
        <ele>1158</ele>
        <time>2016-04-24T21:07:02Z</time>
      </trkpt>
      <trkpt lat="44.01596" lon="7.20605">
        <ele>1153</ele>
        <time>2016-04-24T21:09:02Z</time>
      </trkpt>
      <trkpt lat="44.01556" lon="7.20594">
        <ele>1167</ele>
        <time>2016-04-24T21:11:02Z</time>
      </trkpt>
      <trkpt lat="44.01508" lon="7.2054">
        <ele>1185</ele>
        <time>2016-04-24T21:13:02Z</time>
      </trkpt>
      <trkpt lat="44.01507" lon="7.20397">
        <ele>1153</ele>
        <time>2016-04-24T21:15:02Z</time>
      </trkpt>
      <trkpt lat="44.01528" lon="7.203">
        <ele>1123</ele>
        <time>2016-04-24T21:17:02Z</time>
      </trkpt>
      <trkpt lat="44.01508" lon="7.20184">
        <ele>1103</ele>
        <time>2016-04-24T21:19:02Z</time>
      </trkpt>
      <trkpt lat="44.01468" lon="7.20148">
        <ele>1104</ele>
        <time>2016-04-24T21:21:02Z</time>
      </trkpt>
      <trkpt lat="44.01513" lon="7.20126">
        <ele>1084</ele>
        <time>2016-04-24T21:23:02Z</time>
      </trkpt>
      <trkpt lat="44.01549" lon="7.20208">
        <ele>1093</ele>
        <time>2016-04-24T21:25:02Z</time>
      </trkpt>
      <trkpt lat="44.01555" lon="7.20302">
        <ele>1109</ele>
        <time>2016-04-24T21:27:02Z</time>
      </trkpt>
      <trkpt lat="44.01575" lon="7.2021">
        <ele>1083</ele>
        <time>2016-04-24T21:29:02Z</time>
      </trkpt>
      <trkpt lat="44.0153" lon="7.2007">
        <ele>1070</ele>
        <time>2016-04-24T21:31:02Z</time>
      </trkpt>
      <trkpt lat="44.01482" lon="7.20036">
        <ele>1064</ele>
        <time>2016-04-24T21:33:02Z</time>
      </trkpt>
      <trkpt lat="44.0142" lon="7.20036">
        <ele>1070</ele>
        <time>2016-04-24T21:35:02Z</time>
      </trkpt>
      <trkpt lat="44.01339" lon="7.19886">
        <ele>1055</ele>
        <time>2016-04-24T21:37:02Z</time>
      </trkpt>
      <trkpt lat="44.0126" lon="7.19822">
        <ele>1040</ele>
        <time>2016-04-24T21:39:02Z</time>
      </trkpt>
      <trkpt lat="44.01177" lon="7.19802">
        <ele>1017</ele>
        <time>2016-04-24T21:41:02Z</time>
      </trkpt>
      <trkpt lat="44.01099" lon="7.19918">
        <ele>1030</ele>
        <time>2016-04-24T21:43:02Z</time>
      </trkpt>
      <trkpt lat="44.01013" lon="7.20004">
        <ele>1064</ele>
        <time>2016-04-24T21:45:02Z</time>
      </trkpt>
      <trkpt lat="44.01005" lon="7.1997">
        <ele>1064</ele>
        <time>2016-04-24T21:47:02Z</time>
      </trkpt>
      <trkpt lat="44.01078" lon="7.19819">
        <ele>1021</ele>
        <time>2016-04-24T21:49:02Z</time>
      </trkpt>
      <trkpt lat="44.01104" lon="7.19714">
        <ele>1009</ele>
        <time>2016-04-24T21:51:02Z</time>
      </trkpt>
      <trkpt lat="44.0107" lon="7.19601">
        <ele>995</ele>
        <time>2016-04-24T21:53:02Z</time>
      </trkpt>
      <trkpt lat="44.01022" lon="7.1951">
        <ele>999</ele>
        <time>2016-04-24T21:55:02Z</time>
      </trkpt>
      <trkpt lat="44.00967" lon="7.19401">
        <ele>981</ele>
        <time>2016-04-24T21:57:02Z</time>
      </trkpt>
      <trkpt lat="44.01025" lon="7.1941">
        <ele>966</ele>
        <time>2016-04-24T21:59:02Z</time>
      </trkpt>
      <trkpt lat="44.01082" lon="7.19459">
        <ele>964</ele>
        <time>2016-04-24T22:01:02Z</time>
      </trkpt>
      <trkpt lat="44.0109" lon="7.19313">
        <ele>992</ele>
        <time>2016-04-24T22:03:02Z</time>
      </trkpt>
      <trkpt lat="44.01021" lon="7.19229">
        <ele>974</ele>
        <time>2016-04-24T22:05:02Z</time>
      </trkpt>
      <trkpt lat="44.00965" lon="7.19107">
        <ele>975</ele>
        <time>2016-04-24T22:07:02Z</time>
      </trkpt>
      <trkpt lat="44.00917" lon="7.19038">
        <ele>970</ele>
        <time>2016-04-24T22:09:02Z</time>
      </trkpt>
      <trkpt lat="44.00862" lon="7.18976">
        <ele>959</ele>
        <time>2016-04-24T22:11:02Z</time>
      </trkpt>
      <trkpt lat="44.0084" lon="7.18888">
        <ele>974</ele>
        <time>2016-04-24T22:13:02Z</time>
      </trkpt>
      <trkpt lat="44.00806" lon="7.18875">
        <ele>968</ele>
        <time>2016-04-24T22:15:02Z</time>
      </trkpt>
      <trkpt lat="44.00783" lon="7.18751">
        <ele>980</ele>
        <time>2016-04-24T22:17:02Z</time>
      </trkpt>
      <trkpt lat="44.00802" lon="7.1868">
        <ele>992</ele>
        <time>2016-04-24T22:19:02Z</time>
      </trkpt>
      <trkpt lat="44.00751" lon="7.18573">
        <ele>988</ele>
        <time>2016-04-24T22:21:02Z</time>
      </trkpt>
      <trkpt lat="44.00768" lon="7.18483">
        <ele>1004</ele>
        <time>2016-04-24T22:23:02Z</time>
      </trkpt>
      <trkpt lat="44.00812" lon="7.1839">
        <ele>1041</ele>
        <time>2016-04-24T22:25:02Z</time>
      </trkpt>
      <trkpt lat="44.00822" lon="7.18385">
        <ele>1047</ele>
        <time>2016-04-24T22:27:02Z</time>
      </trkpt>
      <trkpt lat="44.00818" lon="7.1837">
        <ele>1048</ele>
        <time>2016-04-24T22:29:02Z</time>
      </trkpt>
      <trkpt lat="44.00758" lon="7.18373">
        <ele>1020</ele>
        <time>2016-04-24T22:31:02Z</time>
      </trkpt>
      <trkpt lat="44.00742" lon="7.18361">
        <ele>1017</ele>
        <time>2016-04-24T22:33:02Z</time>
      </trkpt>
      <trkpt lat="44.00708" lon="7.18321">
        <ele>1020</ele>
        <time>2016-04-24T22:35:02Z</time>
      </trkpt>
      <trkpt lat="44.00657" lon="7.18327">
        <ele>999</ele>
        <time>2016-04-24T22:37:02Z</time>
      </trkpt>
      <trkpt lat="44.00643" lon="7.18318">
        <ele>994</ele>
        <time>2016-04-24T22:39:02Z</time>
      </trkpt>
      <trkpt lat="44.00589" lon="7.18194">
        <ele>974</ele>
        <time>2016-04-24T22:41:02Z</time>
      </trkpt>
      <trkpt lat="44.00613" lon="7.18122">
        <ele>989</ele>
        <time>2016-04-24T22:43:02Z</time>
      </trkpt>
      <trkpt lat="44.0061" lon="7.18103">
        <ele>987</ele>
        <time>2016-04-24T22:45:02Z</time>
      </trkpt>
      <trkpt lat="44.00588" lon="7.18045">
        <ele>984</ele>
        <time>2016-04-24T22:47:02Z</time>
      </trkpt>
      <trkpt lat="44.00546" lon="7.18028">
        <ele>967</ele>
        <time>2016-04-24T22:49:02Z</time>
      </trkpt>
      <trkpt lat="44.0054" lon="7.18013">
        <ele>966</ele>
        <time>2016-04-24T22:51:02Z</time>
      </trkpt>
      <trkpt lat="44.00552" lon="7.17977">
        <ele>979</ele>
        <time>2016-04-24T22:53:02Z</time>
      </trkpt>
      <trkpt lat="44.00548" lon="7.17958">
        <ele>981</ele>
        <time>2016-04-24T22:55:02Z</time>
      </trkpt>
      <trkpt lat="44.00504" lon="7.17866">
        <ele>971</ele>
        <time>2016-04-24T22:57:02Z</time>
      </trkpt>
      <trkpt lat="44.00508" lon="7.17832">
        <ele>979</ele>
        <time>2016-04-24T22:59:02Z</time>
      </trkpt>
      <trkpt lat="44.00501" lon="7.17816">
        <ele>976</ele>
        <time>2016-04-24T23:01:02Z</time>
      </trkpt>
      <trkpt lat="44.00474" lon="7.17808">
        <ele>959</ele>
        <time>2016-04-24T23:03:02Z</time>
      </trkpt>
      <trkpt lat="44.00467" lon="7.17791">
        <ele>956</ele>
        <time>2016-04-24T23:05:02Z</time>
      </trkpt>
      <trkpt lat="44.00478" lon="7.17713">
        <ele>964</ele>
        <time>2016-04-24T23:07:02Z</time>
      </trkpt>
      <trkpt lat="44.00479" lon="7.17591">
        <ele>974</ele>
        <time>2016-04-24T23:09:02Z</time>
      </trkpt>
      <trkpt lat="44.00472" lon="7.17575">
        <ele>975</ele>
        <time>2016-04-24T23:11:02Z</time>
      </trkpt>
      <trkpt lat="44.004" lon="7.17574">
        <ele>950</ele>
        <time>2016-04-24T23:13:02Z</time>
      </trkpt>
      <trkpt lat="44.00383" lon="7.1757">
        <ele>945</ele>
        <time>2016-04-24T23:15:02Z</time>
      </trkpt>
      <trkpt lat="44.00337" lon="7.17537">
        <ele>931</ele>
        <time>2016-04-24T23:17:02Z</time>
      </trkpt>
      <trkpt lat="44.0033" lon="7.17522">
        <ele>929</ele>
        <time>2016-04-24T23:19:02Z</time>
      </trkpt>
      <trkpt lat="44.00333" lon="7.17501">
        <ele>933</ele>
        <time>2016-04-24T23:21:02Z</time>
      </trkpt>
      <trkpt lat="44.00332" lon="7.17475">
        <ele>934</ele>
        <time>2016-04-24T23:23:02Z</time>
      </trkpt>
      <trkpt lat="44.00323" lon="7.17456">
        <ele>931</ele>
        <time>2016-04-24T23:25:02Z</time>
      </trkpt>
      <trkpt lat="44.00329" lon="7.17434">
        <ele>935</ele>
        <time>2016-04-24T23:27:02Z</time>
      </trkpt>
      <trkpt lat="44.00343" lon="7.17384">
        <ele>953</ele>
        <time>2016-04-24T23:29:02Z</time>
      </trkpt>
      <trkpt lat="44.00341" lon="7.17372">
        <ele>955</ele>
        <time>2016-04-24T23:31:02Z</time>
      </trkpt>
      <trkpt lat="44.00298" lon="7.17347">
        <ele>947</ele>
        <time>2016-04-24T23:33:02Z</time>
      </trkpt>
      <trkpt lat="44.00221" lon="7.17355">
        <ele>915</ele>
        <time>2016-04-24T23:35:02Z</time>
      </trkpt>
      <trkpt lat="44.00208" lon="7.17341">
        <ele>911</ele>
        <time>2016-04-24T23:37:02Z</time>
      </trkpt>
      <trkpt lat="44.00191" lon="7.17241">
        <ele>907</ele>
        <time>2016-04-24T23:39:02Z</time>
      </trkpt>
      <trkpt lat="44.00194" lon="7.17221">
        <ele>910</ele>
        <time>2016-04-24T23:41:02Z</time>
      </trkpt>
      <trkpt lat="44.00213" lon="7.17168">
        <ele>922</ele>
        <time>2016-04-24T23:43:02Z</time>
      </trkpt>
      <trkpt lat="44.00209" lon="7.17152">
        <ele>924</ele>
        <time>2016-04-24T23:45:02Z</time>
      </trkpt>
      <trkpt lat="44.0018" lon="7.17111">
        <ele>925</ele>
        <time>2016-04-24T23:47:02Z</time>
      </trkpt>
      <trkpt lat="44.00164" lon="7.17104">
        <ele>921</ele>
        <time>2016-04-24T23:49:02Z</time>
      </trkpt>
      <trkpt lat="44.00112" lon="7.17122">
        <ele>893</ele>
        <time>2016-04-24T23:51:02Z</time>
      </trkpt>
      <trkpt lat="44.00097" lon="7.17119">
        <ele>888</ele>
        <time>2016-04-24T23:53:02Z</time>
      </trkpt>
      <trkpt lat="44.00078" lon="7.17111">
        <ele>882</ele>
        <time>2016-04-24T23:55:02Z</time>
      </trkpt>
      <trkpt lat="44.00072" lon="7.171">
        <ele>881</ele>
        <time>2016-04-24T23:57:02Z</time>
      </trkpt>
      <trkpt lat="44.00088" lon="7.17051">
        <ele>888</ele>
        <time>2016-04-24T23:59:02Z</time>
      </trkpt>
      <trkpt lat="44.00101" lon="7.16974">
        <ele>881</ele>
        <time>2016-04-25T00:01:02Z</time>
      </trkpt>
      <trkpt lat="44.00147" lon="7.16891">
        <ele>911</ele>
        <time>2016-04-25T00:03:02Z</time>
      </trkpt>
      <trkpt lat="44.00144" lon="7.16879">
        <ele>912</ele>
        <time>2016-04-25T00:05:02Z</time>
      </trkpt>
      <trkpt lat="44.00042" lon="7.16824">
        <ele>871</ele>
        <time>2016-04-25T00:07:02Z</time>
      </trkpt>
      <trkpt lat="44.00035" lon="7.16801">
        <ele>872</ele>
        <time>2016-04-25T00:09:02Z</time>
      </trkpt>
      <trkpt lat="44.00035" lon="7.16767">
        <ele>880</ele>
        <time>2016-04-25T00:11:02Z</time>
      </trkpt>
      <trkpt lat="44.00023" lon="7.16746">
        <ele>876</ele>
        <time>2016-04-25T00:13:02Z</time>
      </trkpt>
      <trkpt lat="44.00014" lon="7.16724">
        <ele>866</ele>
        <time>2016-04-25T00:15:02Z</time>
      </trkpt>
      <trkpt lat="44.00018" lon="7.16681">
        <ele>859</ele>
        <time>2016-04-25T00:17:02Z</time>
      </trkpt>
      <trkpt lat="44.00065" lon="7.16585">
        <ele>846</ele>
        <time>2016-04-25T00:19:02Z</time>
      </trkpt>
      <trkpt lat="44.00092" lon="7.16555">
        <ele>856</ele>
        <time>2016-04-25T00:21:02Z</time>
      </trkpt>
      <trkpt lat="44.00098" lon="7.1653">
        <ele>855</ele>
        <time>2016-04-25T00:23:02Z</time>
      </trkpt>
      <trkpt lat="44.00094" lon="7.16513">
        <ele>849</ele>
        <time>2016-04-25T00:25:02Z</time>
      </trkpt>
      <trkpt lat="44.001" lon="7.16484">
        <ele>858</ele>
        <time>2016-04-25T00:27:02Z</time>
      </trkpt>
      <trkpt lat="44.00109" lon="7.16477">
        <ele>867</ele>
        <time>2016-04-25T00:29:02Z</time>
      </trkpt>
      <trkpt lat="44.00103" lon="7.16468">
        <ele>867</ele>
        <time>2016-04-25T00:31:02Z</time>
      </trkpt>
      <trkpt lat="44.00052" lon="7.16439">
        <ele>853</ele>
        <time>2016-04-25T00:33:02Z</time>
      </trkpt>
      <trkpt lat="44.00046" lon="7.16404">
        <ele>867</ele>
        <time>2016-04-25T00:35:02Z</time>
      </trkpt>
      <trkpt lat="44.00035" lon="7.1639">
        <ele>870</ele>
        <time>2016-04-25T00:37:02Z</time>
      </trkpt>
      <trkpt lat="43.99948" lon="7.16367">
        <ele>861</ele>
        <time>2016-04-25T00:39:02Z</time>
      </trkpt>
      <trkpt lat="43.99825" lon="7.16382">
        <ele>827</ele>
        <time>2016-04-25T00:41:02Z</time>
      </trkpt>
      <trkpt lat="43.9981" lon="7.16371">
        <ele>823</ele>
        <time>2016-04-25T00:43:02Z</time>
      </trkpt>
      <trkpt lat="43.99787" lon="7.16324">
        <ele>820</ele>
        <time>2016-04-25T00:45:02Z</time>
      </trkpt>
      <trkpt lat="43.99782" lon="7.16304">
        <ele>815</ele>
        <time>2016-04-25T00:47:02Z</time>
      </trkpt>
      <trkpt lat="43.99793" lon="7.16249">
        <ele>817</ele>
        <time>2016-04-25T00:49:02Z</time>
      </trkpt>
      <trkpt lat="43.99789" lon="7.16228">
        <ele>814</ele>
        <time>2016-04-25T00:51:02Z</time>
      </trkpt>
      <trkpt lat="43.99746" lon="7.16167">
        <ele>795</ele>
        <time>2016-04-25T00:53:02Z</time>
      </trkpt>
      <trkpt lat="43.99745" lon="7.1616">
        <ele>793</ele>
        <time>2016-04-25T00:55:02Z</time>
      </trkpt>
      <trkpt lat="43.99756" lon="7.16147">
        <ele>793</ele>
        <time>2016-04-25T00:57:02Z</time>
      </trkpt>
      <trkpt lat="43.99753" lon="7.16142">
        <ele>791</ele>
        <time>2016-04-25T00:59:02Z</time>
      </trkpt>
      <trkpt lat="43.99728" lon="7.16143">
        <ele>783</ele>
        <time>2016-04-25T01:01:02Z</time>
      </trkpt>
      <trkpt lat="43.99719" lon="7.16146">
        <ele>781</ele>
        <time>2016-04-25T01:03:02Z</time>
      </trkpt>
      <trkpt lat="43.99735" lon="7.16135">
        <ele>783</ele>
        <time>2016-04-25T01:05:02Z</time>
      </trkpt>
      <trkpt lat="43.99732" lon="7.16129">
        <ele>781</ele>
        <time>2016-04-25T01:07:02Z</time>
      </trkpt>
      <trkpt lat="43.99694" lon="7.16124">
        <ele>770</ele>
        <time>2016-04-25T01:09:02Z</time>
      </trkpt>
      <trkpt lat="43.99696" lon="7.16119">
        <ele>769</ele>
        <time>2016-04-25T01:11:02Z</time>
      </trkpt>
      <trkpt lat="43.99773" lon="7.16075">
        <ele>776</ele>
        <time>2016-04-25T01:13:02Z</time>
      </trkpt>
      <trkpt lat="43.99822" lon="7.16024">
        <ele>781</ele>
        <time>2016-04-25T01:15:02Z</time>
      </trkpt>
      <trkpt lat="43.99822" lon="7.16015">
        <ele>779</ele>
        <time>2016-04-25T01:17:02Z</time>
      </trkpt>
      <trkpt lat="43.99793" lon="7.15988">
        <ele>769</ele>
        <time>2016-04-25T01:19:02Z</time>
      </trkpt>
      <trkpt lat="43.99701" lon="7.1592">
        <ele>740</ele>
        <time>2016-04-25T01:21:02Z</time>
      </trkpt>
      <trkpt lat="43.99696" lon="7.15911">
        <ele>739</ele>
        <time>2016-04-25T01:23:02Z</time>
      </trkpt>
      <trkpt lat="43.99654" lon="7.15787">
        <ele>728</ele>
        <time>2016-04-25T01:25:02Z</time>
      </trkpt>
      <trkpt lat="43.99652" lon="7.15778">
        <ele>727</ele>
        <time>2016-04-25T01:27:02Z</time>
      </trkpt>
      <trkpt lat="43.99676" lon="7.15601">
        <ele>730</ele>
        <time>2016-04-25T01:29:02Z</time>
      </trkpt>
      <trkpt lat="43.99674" lon="7.15589">
        <ele>729</ele>
        <time>2016-04-25T01:31:02Z</time>
      </trkpt>
      <trkpt lat="43.99651" lon="7.15563">
        <ele>720</ele>
        <time>2016-04-25T01:33:02Z</time>
      </trkpt>
      <trkpt lat="43.99646" lon="7.15553">
        <ele>718</ele>
        <time>2016-04-25T01:35:02Z</time>
      </trkpt>
      <trkpt lat="43.99633" lon="7.15519">
        <ele>716</ele>
        <time>2016-04-25T01:37:02Z</time>
      </trkpt>
      <trkpt lat="43.99626" lon="7.15511">
        <ele>712</ele>
        <time>2016-04-25T01:39:02Z</time>
      </trkpt>
      <trkpt lat="43.99614" lon="7.15508">
        <ele>705</ele>
        <time>2016-04-25T01:41:02Z</time>
      </trkpt>
      <trkpt lat="43.99607" lon="7.15499">
        <ele>702</ele>
        <time>2016-04-25T01:43:02Z</time>
      </trkpt>
      <trkpt lat="43.99592" lon="7.15467">
        <ele>696</ele>
        <time>2016-04-25T01:45:02Z</time>
      </trkpt>
      <trkpt lat="43.99576" lon="7.15392">
        <ele>690</ele>
        <time>2016-04-25T01:47:02Z</time>
      </trkpt>
      <trkpt lat="43.99578" lon="7.15378">
        <ele>690</ele>
        <time>2016-04-25T01:49:02Z</time>
      </trkpt>
      <trkpt lat="43.99602" lon="7.15298">
        <ele>692</ele>
        <time>2016-04-25T01:51:02Z</time>
      </trkpt>
      <trkpt lat="43.99635" lon="7.15229">
        <ele>695</ele>
        <time>2016-04-25T01:53:02Z</time>
      </trkpt>
      <trkpt lat="43.99655" lon="7.15145">
        <ele>691</ele>
        <time>2016-04-25T01:55:02Z</time>
      </trkpt>
      <trkpt lat="43.99657" lon="7.15129">
        <ele>691</ele>
        <time>2016-04-25T01:57:02Z</time>
      </trkpt>
      <trkpt lat="43.99656" lon="7.15049">
        <ele>686</ele>
        <time>2016-04-25T01:59:02Z</time>
      </trkpt>
      <trkpt lat="43.99653" lon="7.15035">
        <ele>685</ele>
        <time>2016-04-25T02:01:02Z</time>
      </trkpt>
      <trkpt lat="43.99644" lon="7.15011">
        <ele>684</ele>
        <time>2016-04-25T02:03:02Z</time>
      </trkpt>
      <trkpt lat="43.99642" lon="7.14998">
        <ele>684</ele>
        <time>2016-04-25T02:05:02Z</time>
      </trkpt>
      <trkpt lat="43.99634" lon="7.1492">
        <ele>682</ele>
        <time>2016-04-25T02:07:02Z</time>
      </trkpt>
    </trkseg>
  </trk>
</gpx>